sensor_id;sensor_type;location;lat;lon;timestamp;P1;durP1;ratioP1;P2;durP2;ratioP2
20729;SDS011;10526;50.850;12.928;2023-06-26T00:02:46;12.00;;;6.13;;
20729;SDS011;10526;50.850;12.928;2023-06-26T00:07:08;13.38;;;7.05;;
20729;SDS011;10526;50.850;12.928;2023-06-26T00:11:31;13.07;;;6.75;;
20729;SDS011;10526;50.850;12.928;2023-06-26T00:15:54;13.70;;;6.93;;
20729;SDS011;10526;50.850;12.928;2023-06-26T00:20:16;13.52;;;6.78;;
20729;SDS011;10526;50.850;12.928;2023-06-26T00:24:40;13.30;;;6.60;;
20729;SDS011;10526;50.850;12.928;2023-06-26T00:29:02;12.82;;;6.82;;
20729;SDS011;10526;50.850;12.928;2023-06-26T00:33:24;14.95;;;7.32;;
20729;SDS011;10526;50.850;12.928;2023-06-26T00:37:46;17.52;;;6.90;;
20729;SDS011;10526;50.850;12.928;2023-06-26T00:42:09;14.68;;;6.75;;
20729;SDS011;10526;50.850;12.928;2023-06-26T00:46:32;14.60;;;7.20;;
20729;SDS011;10526;50.850;12.928;2023-06-26T00:50:55;15.63;;;7.07;;
20729;SDS011;10526;50.850;12.928;2023-06-26T00:55:18;14.70;;;6.70;;
20729;SDS011;10526;50.850;12.928;2023-06-26T00:59:40;14.02;;;7.70;;
20729;SDS011;10526;50.850;12.928;2023-06-26T01:04:02;11.98;;;6.80;;
20729;SDS011;10526;50.850;12.928;2023-06-26T01:08:24;13.82;;;6.70;;
20729;SDS011;10526;50.850;12.928;2023-06-26T01:12:48;12.40;;;6.88;;
20729;SDS011;10526;50.850;12.928;2023-06-26T01:17:10;16.00;;;8.15;;
20729;SDS011;10526;50.850;12.928;2023-06-26T01:21:35;13.68;;;7.20;;
20729;SDS011;10526;50.850;12.928;2023-06-26T01:30:44;12.77;;;6.50;;
20729;SDS011;10526;50.850;12.928;2023-06-26T01:35:07;18.40;;;7.22;;
20729;SDS011;10526;50.850;12.928;2023-06-26T01:39:30;12.80;;;6.25;;
20729;SDS011;10526;50.850;12.928;2023-06-26T01:43:57;14.82;;;7.63;;
20729;SDS011;10526;50.850;12.928;2023-06-26T01:54:00;14.07;;;6.78;;
20729;SDS011;10526;50.850;12.928;2023-06-26T01:58:23;12.05;;;6.75;;
20729;SDS011;10526;50.850;12.928;2023-06-26T02:02:47;17.25;;;7.40;;
20729;SDS011;10526;50.850;12.928;2023-06-26T02:07:09;14.85;;;7.50;;
20729;SDS011;10526;50.850;12.928;2023-06-26T02:11:31;13.70;;;6.95;;
20729;SDS011;10526;50.850;12.928;2023-06-26T02:15:53;15.38;;;7.15;;
20729;SDS011;10526;50.850;12.928;2023-06-26T02:20:15;12.93;;;6.88;;
20729;SDS011;10526;50.850;12.928;2023-06-26T02:24:38;13.13;;;7.10;;
20729;SDS011;10526;50.850;12.928;2023-06-26T02:29:00;17.42;;;7.88;;
20729;SDS011;10526;50.850;12.928;2023-06-26T02:33:22;22.67;;;10.95;;
20729;SDS011;10526;50.850;12.928;2023-06-26T02:37:44;23.50;;;15.02;;
20729;SDS011;10526;50.850;12.928;2023-06-26T02:42:07;18.20;;;8.60;;
20729;SDS011;10526;50.850;12.928;2023-06-26T02:46:29;12.50;;;7.40;;
20729;SDS011;10526;50.850;12.928;2023-06-26T02:50:51;18.95;;;8.05;;
20729;SDS011;10526;50.850;12.928;2023-06-26T02:55:20;13.95;;;7.78;;
20729;SDS011;10526;50.850;12.928;2023-06-26T02:59:45;16.95;;;9.10;;
20729;SDS011;10526;50.850;12.928;2023-06-26T03:04:08;14.75;;;8.30;;
20729;SDS011;10526;50.850;12.928;2023-06-26T03:08:30;14.43;;;7.95;;
20729;SDS011;10526;50.850;12.928;2023-06-26T03:12:53;23.83;;;12.25;;
20729;SDS011;10526;50.850;12.928;2023-06-26T03:17:17;14.00;;;7.55;;
20729;SDS011;10526;50.850;12.928;2023-06-26T03:21:41;17.83;;;8.27;;
20729;SDS011;10526;50.850;12.928;2023-06-26T03:26:03;14.68;;;7.63;;
20729;SDS011;10526;50.850;12.928;2023-06-26T03:30:28;29.35;;;8.43;;
20729;SDS011;10526;50.850;12.928;2023-06-26T03:34:51;13.48;;;6.38;;
20729;SDS011;10526;50.850;12.928;2023-06-26T03:39:18;15.52;;;6.65;;
20729;SDS011;10526;50.850;12.928;2023-06-26T03:43:40;13.02;;;6.43;;
20729;SDS011;10526;50.850;12.928;2023-06-26T03:48:10;11.38;;;5.53;;
20729;SDS011;10526;50.850;12.928;2023-06-26T03:52:32;12.30;;;5.60;;
20729;SDS011;10526;50.850;12.928;2023-06-26T03:56:54;14.23;;;5.65;;
20729;SDS011;10526;50.850;12.928;2023-06-26T04:01:16;12.48;;;4.90;;
20729;SDS011;10526;50.850;12.928;2023-06-26T04:05:39;10.02;;;5.05;;
20729;SDS011;10526;50.850;12.928;2023-06-26T04:10:01;10.48;;;5.22;;
20729;SDS011;10526;50.850;12.928;2023-06-26T04:14:24;12.20;;;5.60;;
20729;SDS011;10526;50.850;12.928;2023-06-26T04:18:46;11.60;;;5.03;;
20729;SDS011;10526;50.850;12.928;2023-06-26T04:23:08;11.15;;;4.80;;
20729;SDS011;10526;50.850;12.928;2023-06-26T04:27:30;11.32;;;4.65;;
20729;SDS011;10526;50.850;12.928;2023-06-26T04:31:56;12.40;;;5.65;;
20729;SDS011;10526;50.850;12.928;2023-06-26T04:36:20;9.85;;;4.80;;
20729;SDS011;10526;50.850;12.928;2023-06-26T04:40:43;12.27;;;5.10;;
20729;SDS011;10526;50.850;12.928;2023-06-26T04:45:05;11.77;;;5.65;;
20729;SDS011;10526;50.850;12.928;2023-06-26T04:49:28;13.82;;;5.55;;
20729;SDS011;10526;50.850;12.928;2023-06-26T04:53:51;9.95;;;4.50;;
20729;SDS011;10526;50.850;12.928;2023-06-26T04:58:13;15.60;;;4.95;;
20729;SDS011;10526;50.850;12.928;2023-06-26T05:02:35;11.80;;;4.35;;
20729;SDS011;10526;50.850;12.928;2023-06-26T05:06:58;8.77;;;4.47;;
20729;SDS011;10526;50.850;12.928;2023-06-26T05:11:21;11.80;;;4.32;;
20729;SDS011;10526;50.850;12.928;2023-06-26T05:15:44;14.30;;;4.50;;
20729;SDS011;10526;50.850;12.928;2023-06-26T05:20:08;10.15;;;3.90;;
20729;SDS011;10526;50.850;12.928;2023-06-26T05:24:31;8.88;;;3.70;;
20729;SDS011;10526;50.850;12.928;2023-06-26T05:28:54;7.50;;;3.80;;
20729;SDS011;10526;50.850;12.928;2023-06-26T05:33:17;6.88;;;3.75;;
20729;SDS011;10526;50.850;12.928;2023-06-26T05:37:43;5.72;;;3.47;;
20729;SDS011;10526;50.850;12.928;2023-06-26T05:42:06;6.68;;;3.58;;
20729;SDS011;10526;50.850;12.928;2023-06-26T05:46:28;12.40;;;4.15;;
20729;SDS011;10526;50.850;12.928;2023-06-26T05:50:51;10.60;;;3.83;;
20729;SDS011;10526;50.850;12.928;2023-06-26T05:55:13;6.93;;;3.75;;
20729;SDS011;10526;50.850;12.928;2023-06-26T05:59:36;6.85;;;3.78;;
20729;SDS011;10526;50.850;12.928;2023-06-26T06:04:01;9.32;;;4.45;;
20729;SDS011;10526;50.850;12.928;2023-06-26T06:08:22;7.47;;;3.42;;
20729;SDS011;10526;50.850;12.928;2023-06-26T06:12:45;8.35;;;4.13;;
20729;SDS011;10526;50.850;12.928;2023-06-26T06:17:07;8.15;;;3.42;;
20729;SDS011;10526;50.850;12.928;2023-06-26T06:21:29;8.50;;;3.83;;
20729;SDS011;10526;50.850;12.928;2023-06-26T06:25:51;8.43;;;3.67;;
20729;SDS011;10526;50.850;12.928;2023-06-26T06:30:13;5.70;;;3.38;;
20729;SDS011;10526;50.850;12.928;2023-06-26T06:34:36;6.97;;;3.67;;
20729;SDS011;10526;50.850;12.928;2023-06-26T06:38:58;11.73;;;3.85;;
20729;SDS011;10526;50.850;12.928;2023-06-26T06:43:20;5.93;;;3.25;;
20729;SDS011;10526;50.850;12.928;2023-06-26T06:47:42;11.23;;;3.70;;
20729;SDS011;10526;50.850;12.928;2023-06-26T06:52:04;8.30;;;3.60;;
20729;SDS011;10526;50.850;12.928;2023-06-26T06:56:27;12.57;;;4.00;;
20729;SDS011;10526;50.850;12.928;2023-06-26T07:00:49;8.88;;;3.38;;
20729;SDS011;10526;50.850;12.928;2023-06-26T07:05:13;6.90;;;3.42;;
20729;SDS011;10526;50.850;12.928;2023-06-26T07:09:35;6.30;;;3.67;;
20729;SDS011;10526;50.850;12.928;2023-06-26T07:13:58;7.85;;;3.75;;
20729;SDS011;10526;50.850;12.928;2023-06-26T07:18:20;7.30;;;3.75;;
20729;SDS011;10526;50.850;12.928;2023-06-26T07:22:42;7.68;;;3.63;;
20729;SDS011;10526;50.850;12.928;2023-06-26T07:27:09;7.45;;;3.90;;
20729;SDS011;10526;50.850;12.928;2023-06-26T07:31:31;7.53;;;3.60;;
20729;SDS011;10526;50.850;12.928;2023-06-26T07:35:53;7.18;;;3.63;;
20729;SDS011;10526;50.850;12.928;2023-06-26T07:40:17;5.68;;;3.30;;
20729;SDS011;10526;50.850;12.928;2023-06-26T07:44:40;6.63;;;3.42;;
20729;SDS011;10526;50.850;12.928;2023-06-26T07:49:03;7.25;;;3.58;;
20729;SDS011;10526;50.850;12.928;2023-06-26T07:53:26;7.13;;;3.63;;
20729;SDS011;10526;50.850;12.928;2023-06-26T07:57:48;6.78;;;3.38;;
20729;SDS011;10526;50.850;12.928;2023-06-26T08:02:12;8.27;;;3.45;;
20729;SDS011;10526;50.850;12.928;2023-06-26T08:06:34;9.65;;;3.40;;
20729;SDS011;10526;50.850;12.928;2023-06-26T08:10:56;6.47;;;3.47;;
20729;SDS011;10526;50.850;12.928;2023-06-26T08:15:18;8.43;;;3.55;;
20729;SDS011;10526;50.850;12.928;2023-06-26T08:19:40;7.22;;;3.30;;
20729;SDS011;10526;50.850;12.928;2023-06-26T08:24:02;5.50;;;3.20;;
20729;SDS011;10526;50.850;12.928;2023-06-26T08:28:25;6.63;;;3.00;;
20729;SDS011;10526;50.850;12.928;2023-06-26T08:32:47;9.82;;;3.53;;
20729;SDS011;10526;50.850;12.928;2023-06-26T08:37:09;8.40;;;3.67;;
20729;SDS011;10526;50.850;12.928;2023-06-26T08:41:31;9.13;;;3.40;;
20729;SDS011;10526;50.850;12.928;2023-06-26T08:45:53;6.63;;;3.35;;
20729;SDS011;10526;50.850;12.928;2023-06-26T08:50:15;6.65;;;3.38;;
20729;SDS011;10526;50.850;12.928;2023-06-26T08:54:42;8.00;;;3.10;;
20729;SDS011;10526;50.850;12.928;2023-06-26T08:59:08;6.07;;;3.22;;
20729;SDS011;10526;50.850;12.928;2023-06-26T09:03:36;5.90;;;3.05;;
20729;SDS011;10526;50.850;12.928;2023-06-26T09:07:59;6.22;;;3.08;;
20729;SDS011;10526;50.850;12.928;2023-06-26T09:12:21;8.10;;;3.63;;
20729;SDS011;10526;50.850;12.928;2023-06-26T09:16:45;5.50;;;3.10;;
20729;SDS011;10526;50.850;12.928;2023-06-26T09:21:07;7.20;;;3.80;;
20729;SDS011;10526;50.850;12.928;2023-06-26T09:25:31;7.82;;;3.88;;
20729;SDS011;10526;50.850;12.928;2023-06-26T09:29:53;5.57;;;3.15;;
20729;SDS011;10526;50.850;12.928;2023-06-26T09:34:17;5.05;;;3.30;;
20729;SDS011;10526;50.850;12.928;2023-06-26T09:38:41;8.60;;;3.50;;
20729;SDS011;10526;50.850;12.928;2023-06-26T09:43:04;4.50;;;2.97;;
20729;SDS011;10526;50.850;12.928;2023-06-26T09:47:29;5.60;;;3.42;;
20729;SDS011;10526;50.850;12.928;2023-06-26T09:51:53;8.68;;;3.17;;
20729;SDS011;10526;50.850;12.928;2023-06-26T09:56:16;5.47;;;3.20;;
20729;SDS011;10526;50.850;12.928;2023-06-26T10:00:39;5.93;;;3.20;;
20729;SDS011;10526;50.850;12.928;2023-06-26T10:05:03;5.22;;;3.40;;
20729;SDS011;10526;50.850;12.928;2023-06-26T10:09:25;5.95;;;3.47;;
20729;SDS011;10526;50.850;12.928;2023-06-26T10:13:50;6.57;;;3.70;;
20729;SDS011;10526;50.850;12.928;2023-06-26T10:18:32;14.73;;;3.75;;
20729;SDS011;10526;50.850;12.928;2023-06-26T10:22:57;7.25;;;3.38;;
20729;SDS011;10526;50.850;12.928;2023-06-26T10:27:24;10.80;;;3.38;;
20729;SDS011;10526;50.850;12.928;2023-06-26T10:31:57;5.55;;;3.10;;
20729;SDS011;10526;50.850;12.928;2023-06-26T10:36:28;4.68;;;2.95;;
20729;SDS011;10526;50.850;12.928;2023-06-26T10:40:52;5.50;;;3.30;;
20729;SDS011;10526;50.850;12.928;2023-06-26T10:45:19;6.43;;;3.63;;
20729;SDS011;10526;50.850;12.928;2023-06-26T10:49:42;5.68;;;3.33;;
20729;SDS011;10526;50.850;12.928;2023-06-26T10:54:28;8.68;;;3.65;;
20729;SDS011;10526;50.850;12.928;2023-06-26T10:58:52;6.50;;;3.97;;
20729;SDS011;10526;50.850;12.928;2023-06-26T11:03:32;9.77;;;3.35;;
20729;SDS011;10526;50.850;12.928;2023-06-26T11:12:40;9.20;;;4.53;;
20729;SDS011;10526;50.850;12.928;2023-06-26T11:17:06;8.77;;;4.45;;
20729;SDS011;10526;50.850;12.928;2023-06-26T11:21:27;10.73;;;4.30;;
20729;SDS011;10526;50.850;12.928;2023-06-26T11:25:50;9.30;;;4.72;;
20729;SDS011;10526;50.850;12.928;2023-06-26T11:30:22;9.45;;;5.30;;
20729;SDS011;10526;50.850;12.928;2023-06-26T11:34:47;9.70;;;4.75;;
20729;SDS011;10526;50.850;12.928;2023-06-26T11:39:09;14.40;;;5.07;;
20729;SDS011;10526;50.850;12.928;2023-06-26T11:43:31;9.68;;;5.00;;
20729;SDS011;10526;50.850;12.928;2023-06-26T11:47:56;8.80;;;4.68;;
20729;SDS011;10526;50.850;12.928;2023-06-26T11:52:19;13.02;;;5.22;;
20729;SDS011;10526;50.850;12.928;2023-06-26T11:56:42;10.00;;;4.88;;
20729;SDS011;10526;50.850;12.928;2023-06-26T12:01:05;10.07;;;5.25;;
20729;SDS011;10526;50.850;12.928;2023-06-26T12:05:27;10.23;;;5.15;;
20729;SDS011;10526;50.850;12.928;2023-06-26T12:09:49;11.43;;;4.88;;
20729;SDS011;10526;50.850;12.928;2023-06-26T12:14:12;10.40;;;4.97;;
20729;SDS011;10526;50.850;12.928;2023-06-26T12:18:36;8.93;;;4.85;;
20729;SDS011;10526;50.850;12.928;2023-06-26T12:22:58;11.55;;;5.43;;
20729;SDS011;10526;50.850;12.928;2023-06-26T12:27:20;10.60;;;5.13;;
20729;SDS011;10526;50.850;12.928;2023-06-26T12:31:43;11.55;;;5.68;;
20729;SDS011;10526;50.850;12.928;2023-06-26T12:36:10;12.05;;;4.97;;
20729;SDS011;10526;50.850;12.928;2023-06-26T12:40:33;9.82;;;4.70;;
20729;SDS011;10526;50.850;12.928;2023-06-26T12:44:55;18.58;;;5.70;;
20729;SDS011;10526;50.850;12.928;2023-06-26T12:49:18;12.18;;;5.53;;
20729;SDS011;10526;50.850;12.928;2023-06-26T12:53:43;16.33;;;5.28;;
20729;SDS011;10526;50.850;12.928;2023-06-26T12:58:05;10.63;;;5.07;;
20729;SDS011;10526;50.850;12.928;2023-06-26T13:02:29;10.20;;;5.25;;
20729;SDS011;10526;50.850;12.928;2023-06-26T13:06:51;9.88;;;4.90;;
20729;SDS011;10526;50.850;12.928;2023-06-26T13:11:15;11.38;;;5.93;;
20729;SDS011;10526;50.850;12.928;2023-06-26T13:15:38;11.63;;;5.45;;
20729;SDS011;10526;50.850;12.928;2023-06-26T13:20:00;11.50;;;5.07;;
20729;SDS011;10526;50.850;12.928;2023-06-26T13:24:22;11.52;;;5.63;;
20729;SDS011;10526;50.850;12.928;2023-06-26T13:28:44;10.68;;;5.20;;
20729;SDS011;10526;50.850;12.928;2023-06-26T13:33:06;13.95;;;5.80;;
20729;SDS011;10526;50.850;12.928;2023-06-26T13:37:29;15.93;;;5.90;;
20729;SDS011;10526;50.850;12.928;2023-06-26T13:41:53;12.30;;;5.30;;
20729;SDS011;10526;50.850;12.928;2023-06-26T13:46:15;12.27;;;5.35;;
20729;SDS011;10526;50.850;12.928;2023-06-26T13:50:38;10.57;;;5.35;;
20729;SDS011;10526;50.850;12.928;2023-06-26T13:55:14;9.55;;;5.00;;
20729;SDS011;10526;50.850;12.928;2023-06-26T13:59:37;9.32;;;4.78;;
20729;SDS011;10526;50.850;12.928;2023-06-26T14:04:04;13.00;;;5.30;;
20729;SDS011;10526;50.850;12.928;2023-06-26T14:08:26;11.95;;;5.32;;
20729;SDS011;10526;50.850;12.928;2023-06-26T14:12:48;11.05;;;5.20;;
20729;SDS011;10526;50.850;12.928;2023-06-26T14:17:11;12.63;;;5.50;;
20729;SDS011;10526;50.850;12.928;2023-06-26T14:21:37;10.02;;;5.32;;
20729;SDS011;10526;50.850;12.928;2023-06-26T14:25:59;9.15;;;5.22;;
20729;SDS011;10526;50.850;12.928;2023-06-26T14:30:22;10.93;;;5.78;;
20729;SDS011;10526;50.850;12.928;2023-06-26T14:34:44;9.80;;;5.32;;
20729;SDS011;10526;50.850;12.928;2023-06-26T14:39:06;11.32;;;5.50;;
20729;SDS011;10526;50.850;12.928;2023-06-26T14:43:28;11.10;;;5.15;;
20729;SDS011;10526;50.850;12.928;2023-06-26T14:47:51;11.45;;;5.45;;
20729;SDS011;10526;50.850;12.928;2023-06-26T14:52:13;10.82;;;5.28;;
20729;SDS011;10526;50.850;12.928;2023-06-26T14:56:35;11.52;;;4.85;;
20729;SDS011;10526;50.850;12.928;2023-06-26T15:00:58;10.85;;;5.57;;
20729;SDS011;10526;50.850;12.928;2023-06-26T15:05:20;11.70;;;5.15;;
20729;SDS011;10526;50.850;12.928;2023-06-26T15:09:45;9.65;;;5.25;;
20729;SDS011;10526;50.850;12.928;2023-06-26T15:14:07;12.13;;;5.22;;
20729;SDS011;10526;50.850;12.928;2023-06-26T15:18:30;15.38;;;6.43;;
20729;SDS011;10526;50.850;12.928;2023-06-26T15:22:52;28.10;;;6.45;;
20729;SDS011;10526;50.850;12.928;2023-06-26T15:27:14;17.05;;;6.95;;
20729;SDS011;10526;50.850;12.928;2023-06-26T15:31:37;20.60;;;7.72;;
20729;SDS011;10526;50.850;12.928;2023-06-26T15:35:59;18.95;;;7.80;;
20729;SDS011;10526;50.850;12.928;2023-06-26T15:40:24;20.70;;;8.68;;
20729;SDS011;10526;50.850;12.928;2023-06-26T15:44:47;20.88;;;8.48;;
20729;SDS011;10526;50.850;12.928;2023-06-26T15:49:09;17.95;;;8.68;;
20729;SDS011;10526;50.850;12.928;2023-06-26T15:53:35;18.15;;;8.02;;
20729;SDS011;10526;50.850;12.928;2023-06-26T15:57:59;17.52;;;8.10;;
20729;SDS011;10526;50.850;12.928;2023-06-26T16:02:21;16.27;;;7.82;;
20729;SDS011;10526;50.850;12.928;2023-06-26T16:06:43;19.50;;;7.78;;
20729;SDS011;10526;50.850;12.928;2023-06-26T16:11:06;28.48;;;7.63;;
20729;SDS011;10526;50.850;12.928;2023-06-26T16:15:29;15.68;;;7.20;;
20729;SDS011;10526;50.850;12.928;2023-06-26T16:19:51;17.77;;;7.18;;
20729;SDS011;10526;50.850;12.928;2023-06-26T16:24:13;14.80;;;7.22;;
20729;SDS011;10526;50.850;12.928;2023-06-26T16:28:35;16.05;;;7.78;;
20729;SDS011;10526;50.850;12.928;2023-06-26T16:32:57;17.63;;;8.15;;
20729;SDS011;10526;50.850;12.928;2023-06-26T16:37:22;19.17;;;8.98;;
20729;SDS011;10526;50.850;12.928;2023-06-26T16:41:48;20.98;;;9.27;;
20729;SDS011;10526;50.850;12.928;2023-06-26T16:46:15;19.00;;;9.48;;
20729;SDS011;10526;50.850;12.928;2023-06-26T16:50:39;23.35;;;10.20;;
20729;SDS011;10526;50.850;12.928;2023-06-26T16:55:02;20.95;;;9.30;;
20729;SDS011;10526;50.850;12.928;2023-06-26T16:59:28;18.67;;;9.52;;
20729;SDS011;10526;50.850;12.928;2023-06-26T17:03:50;21.45;;;10.77;;
20729;SDS011;10526;50.850;12.928;2023-06-26T17:08:13;23.90;;;9.55;;
20729;SDS011;10526;50.850;12.928;2023-06-26T17:12:37;19.60;;;9.63;;
20729;SDS011;10526;50.850;12.928;2023-06-26T17:17:00;19.80;;;10.43;;
20729;SDS011;10526;50.850;12.928;2023-06-26T17:21:23;18.05;;;8.98;;
20729;SDS011;10526;50.850;12.928;2023-06-26T17:25:45;16.08;;;8.20;;
20729;SDS011;10526;50.850;12.928;2023-06-26T17:30:07;22.35;;;8.55;;
20729;SDS011;10526;50.850;12.928;2023-06-26T17:34:30;14.05;;;8.20;;
20729;SDS011;10526;50.850;12.928;2023-06-26T17:38:52;14.93;;;7.82;;
20729;SDS011;10526;50.850;12.928;2023-06-26T17:43:17;17.27;;;8.35;;
20729;SDS011;10526;50.850;12.928;2023-06-26T17:47:42;15.68;;;8.55;;
20729;SDS011;10526;50.850;12.928;2023-06-26T17:52:04;19.52;;;9.13;;
20729;SDS011;10526;50.850;12.928;2023-06-26T17:56:27;18.13;;;9.02;;
20729;SDS011;10526;50.850;12.928;2023-06-26T18:00:49;17.27;;;9.18;;
20729;SDS011;10526;50.850;12.928;2023-06-26T18:05:14;16.95;;;9.80;;
20729;SDS011;10526;50.850;12.928;2023-06-26T18:09:36;21.30;;;9.02;;
20729;SDS011;10526;50.850;12.928;2023-06-26T18:13:59;26.23;;;10.70;;
20729;SDS011;10526;50.850;12.928;2023-06-26T18:18:21;21.83;;;9.75;;
20729;SDS011;10526;50.850;12.928;2023-06-26T18:22:45;18.55;;;10.32;;
20729;SDS011;10526;50.850;12.928;2023-06-26T18:27:07;22.15;;;10.80;;
20729;SDS011;10526;50.850;12.928;2023-06-26T18:31:29;20.48;;;10.27;;
20729;SDS011;10526;50.850;12.928;2023-06-26T18:35:52;24.80;;;9.10;;
20729;SDS011;10526;50.850;12.928;2023-06-26T18:40:16;16.30;;;9.27;;
20729;SDS011;10526;50.850;12.928;2023-06-26T18:49:07;18.13;;;10.05;;
20729;SDS011;10526;50.850;12.928;2023-06-26T18:53:29;19.98;;;9.95;;
20729;SDS011;10526;50.850;12.928;2023-06-26T18:57:51;19.92;;;10.70;;
20729;SDS011;10526;50.850;12.928;2023-06-26T19:02:13;23.00;;;9.95;;
20729;SDS011;10526;50.850;12.928;2023-06-26T19:06:35;17.92;;;8.63;;
20729;SDS011;10526;50.850;12.928;2023-06-26T19:10:58;20.60;;;9.10;;
20729;SDS011;10526;50.850;12.928;2023-06-26T19:15:20;16.60;;;9.90;;
20729;SDS011;10526;50.850;12.928;2023-06-26T19:19:42;21.63;;;10.35;;
20729;SDS011;10526;50.850;12.928;2023-06-26T19:24:05;19.63;;;10.25;;
20729;SDS011;10526;50.850;12.928;2023-06-26T19:28:28;16.17;;;9.07;;
20729;SDS011;10526;50.850;12.928;2023-06-26T19:32:50;15.85;;;9.07;;
20729;SDS011;10526;50.850;12.928;2023-06-26T19:37:12;19.77;;;10.18;;
20729;SDS011;10526;50.850;12.928;2023-06-26T19:41:34;16.83;;;9.40;;
20729;SDS011;10526;50.850;12.928;2023-06-26T19:45:56;20.88;;;10.35;;
20729;SDS011;10526;50.850;12.928;2023-06-26T19:50:20;25.65;;;10.07;;
20729;SDS011;10526;50.850;12.928;2023-06-26T19:54:43;18.45;;;9.80;;
20729;SDS011;10526;50.850;12.928;2023-06-26T19:59:05;21.23;;;10.32;;
20729;SDS011;10526;50.850;12.928;2023-06-26T20:03:27;18.77;;;9.35;;
20729;SDS011;10526;50.850;12.928;2023-06-26T20:07:49;16.35;;;8.75;;
20729;SDS011;10526;50.850;12.928;2023-06-26T20:12:12;19.10;;;10.05;;
20729;SDS011;10526;50.850;12.928;2023-06-26T20:16:34;21.33;;;8.57;;
20729;SDS011;10526;50.850;12.928;2023-06-26T20:20:56;24.33;;;9.52;;
20729;SDS011;10526;50.850;12.928;2023-06-26T20:25:19;19.80;;;10.60;;
20729;SDS011;10526;50.850;12.928;2023-06-26T20:29:41;18.75;;;10.27;;
20729;SDS011;10526;50.850;12.928;2023-06-26T20:34:03;17.27;;;8.87;;
20729;SDS011;10526;50.850;12.928;2023-06-26T20:38:25;20.08;;;9.70;;
20729;SDS011;10526;50.850;12.928;2023-06-26T20:42:47;17.40;;;9.43;;
20729;SDS011;10526;50.850;12.928;2023-06-26T20:47:10;16.80;;;8.27;;
20729;SDS011;10526;50.850;12.928;2023-06-26T20:51:34;16.40;;;7.75;;
20729;SDS011;10526;50.850;12.928;2023-06-26T20:55:56;18.85;;;7.22;;
20729;SDS011;10526;50.850;12.928;2023-06-26T21:00:21;14.77;;;7.22;;
20729;SDS011;10526;50.850;12.928;2023-06-26T21:04:43;16.63;;;7.18;;
20729;SDS011;10526;50.850;12.928;2023-06-26T21:09:05;14.13;;;6.93;;
20729;SDS011;10526;50.850;12.928;2023-06-26T21:13:28;13.77;;;6.90;;
20729;SDS011;10526;50.850;12.928;2023-06-26T21:17:50;13.02;;;6.55;;
20729;SDS011;10526;50.850;12.928;2023-06-26T21:22:12;15.23;;;7.45;;
20729;SDS011;10526;50.850;12.928;2023-06-26T21:26:36;16.20;;;7.43;;
20729;SDS011;10526;50.850;12.928;2023-06-26T21:31:00;14.23;;;6.55;;
20729;SDS011;10526;50.850;12.928;2023-06-26T21:35:22;18.13;;;6.18;;
20729;SDS011;10526;50.850;12.928;2023-06-26T21:40:03;15.05;;;5.65;;
20729;SDS011;10526;50.850;12.928;2023-06-26T21:44:28;17.10;;;5.68;;
20729;SDS011;10526;50.850;12.928;2023-06-26T21:48:50;13.40;;;5.07;;
20729;SDS011;10526;50.850;12.928;2023-06-26T21:53:12;12.90;;;4.43;;
20729;SDS011;10526;50.850;12.928;2023-06-26T21:57:34;13.35;;;4.30;;
20729;SDS011;10526;50.850;12.928;2023-06-26T22:01:56;10.65;;;4.10;;
20729;SDS011;10526;50.850;12.928;2023-06-26T22:06:18;10.60;;;4.53;;
20729;SDS011;10526;50.850;12.928;2023-06-26T22:10:40;12.48;;;4.10;;
20729;SDS011;10526;50.850;12.928;2023-06-26T22:15:02;11.65;;;3.50;;
20729;SDS011;10526;50.850;12.928;2023-06-26T22:19:25;11.00;;;3.92;;
20729;SDS011;10526;50.850;12.928;2023-06-26T22:23:47;8.35;;;3.35;;
20729;SDS011;10526;50.850;12.928;2023-06-26T22:28:09;14.70;;;3.58;;
20729;SDS011;10526;50.850;12.928;2023-06-26T22:32:31;12.35;;;3.22;;
20729;SDS011;10526;50.850;12.928;2023-06-26T22:36:53;8.27;;;2.90;;
20729;SDS011;10526;50.850;12.928;2023-06-26T22:41:16;10.80;;;3.33;;
20729;SDS011;10526;50.850;12.928;2023-06-26T22:45:38;10.13;;;4.05;;
20729;SDS011;10526;50.850;12.928;2023-06-26T22:50:00;12.50;;;3.60;;
20729;SDS011;10526;50.850;12.928;2023-06-26T22:54:22;7.70;;;3.00;;
20729;SDS011;10526;50.850;12.928;2023-06-26T22:58:45;11.10;;;3.40;;
20729;SDS011;10526;50.850;12.928;2023-06-26T23:03:07;7.88;;;3.20;;
20729;SDS011;10526;50.850;12.928;2023-06-26T23:07:29;14.32;;;3.30;;
20729;SDS011;10526;50.850;12.928;2023-06-26T23:11:56;13.43;;;4.45;;
20729;SDS011;10526;50.850;12.928;2023-06-26T23:16:18;15.73;;;4.28;;
20729;SDS011;10526;50.850;12.928;2023-06-26T23:20:40;8.95;;;3.60;;
20729;SDS011;10526;50.850;12.928;2023-06-26T23:25:03;8.52;;;3.17;;
20729;SDS011;10526;50.850;12.928;2023-06-26T23:29:26;15.73;;;4.13;;
20729;SDS011;10526;50.850;12.928;2023-06-26T23:33:48;13.48;;;3.25;;
20729;SDS011;10526;50.850;12.928;2023-06-26T23:38:10;11.18;;;4.32;;
20729;SDS011;10526;50.850;12.928;2023-06-26T23:42:32;10.18;;;3.50;;
20729;SDS011;10526;50.850;12.928;2023-06-26T23:46:55;9.80;;;3.20;;
20729;SDS011;10526;50.850;12.928;2023-06-26T23:51:17;13.75;;;3.42;;
20729;SDS011;10526;50.850;12.928;2023-06-26T23:55:40;9.82;;;3.08;;
